sensor_id;sensor_type;location;lat;lon;timestamp;pressure;altitude;pressure_sealevel;temperature;humidity
9257;BME280;4665;51.368;6.782;2022-11-20T00:02:17;100930.06;;;-0.79;100.00
9257;BME280;4665;51.368;6.782;2022-11-20T00:04:42;100940.31;;;-0.75;100.00
9257;BME280;4665;51.368;6.782;2022-11-20T00:07:07;100941.16;;;-0.74;100.00
9257;BME280;4665;51.368;6.782;2022-11-20T00:09:33;100945.25;;;-0.69;100.00
9257;BME280;4665;51.368;6.782;2022-11-20T00:11:58;100940.06;;;-0.70;100.00
9257;BME280;4665;51.368;6.782;2022-11-20T00:14:23;100943.53;;;-0.70;100.00
9257;BME280;4665;51.368;6.782;2022-11-20T00:16:49;100947.63;;;-0.64;100.00
9257;BME280;4665;51.368;6.782;2022-11-20T00:19:14;100947.63;;;-0.64;100.00
9257;BME280;4665;51.368;6.782;2022-11-20T00:21:39;100947.63;;;-0.64;100.00
9257;BME280;4665;51.368;6.782;2022-11-20T00:24:05;100945.06;;;-0.66;100.00
9257;BME280;4665;51.368;6.782;2022-11-20T00:26:33;100931.00;;;-0.80;100.00
9257;BME280;4665;51.368;6.782;2022-11-20T00:29:00;100942.84;;;-0.73;100.00
9257;BME280;4665;51.368;6.782;2022-11-20T00:31:26;100935.78;;;-0.71;100.00
9257;BME280;4665;51.368;6.782;2022-11-20T00:33:52;100952.69;;;-0.61;100.00
9257;BME280;4665;51.368;6.782;2022-11-20T00:36:23;100930.78;;;-0.76;100.00
9257;BME280;4665;51.368;6.782;2022-11-20T00:38:56;100946.78;;;-0.65;100.00
9257;BME280;4665;51.368;6.782;2022-11-20T00:41:23;100954.69;;;-0.66;100.00
9257;BME280;4665;51.368;6.782;2022-11-20T00:43:49;100939.47;;;-0.75;100.00
9257;BME280;4665;51.368;6.782;2022-11-20T00:46:16;100925.00;;;-0.82;100.00
9257;BME280;4665;51.368;6.782;2022-11-20T00:48:42;100934.41;;;-0.78;100.00
9257;BME280;4665;51.368;6.782;2022-11-20T00:51:08;100925.84;;;-0.82;100.00
9257;BME280;4665;51.368;6.782;2022-11-20T00:53:34;100919.00;;;-0.85;100.00
9257;BME280;4665;51.368;6.782;2022-11-20T00:56:02;100921.63;;;-0.85;100.00
9257;BME280;4665;51.368;6.782;2022-11-20T00:58:33;100935.00;;;-0.73;100.00
9257;BME280;4665;51.368;6.782;2022-11-20T01:01:11;100937.16;;;-0.64;100.00
9257;BME280;4665;51.368;6.782;2022-11-20T01:03:42;100919.06;;;-0.69;100.00
9257;BME280;4665;51.368;6.782;2022-11-20T01:06:13;100933.28;;;-0.57;100.00
9257;BME280;4665;51.368;6.782;2022-11-20T01:08:39;100924.00;;;-0.62;100.00
9257;BME280;4665;51.368;6.782;2022-11-20T01:11:09;100929.75;;;-0.56;100.00
9257;BME280;4665;51.368;6.782;2022-11-20T01:13:36;100915.03;;;-0.58;100.00
9257;BME280;4665;51.368;6.782;2022-11-20T01:16:10;100918.38;;;-0.55;100.00
9257;BME280;4665;51.368;6.782;2022-11-20T01:18:38;100929.44;;;-0.50;100.00
9257;BME280;4665;51.368;6.782;2022-11-20T01:21:06;100919.72;;;-0.48;100.00
9257;BME280;4665;51.368;6.782;2022-11-20T01:23:36;100911.09;;;-0.50;100.00
9257;BME280;4665;51.368;6.782;2022-11-20T01:26:04;100888.72;;;-0.55;100.00
9257;BME280;4665;51.368;6.782;2022-11-20T01:28:30;100896.09;;;-0.46;100.00
9257;BME280;4665;51.368;6.782;2022-11-20T01:30:56;100922.63;;;-0.36;100.00
9257;BME280;4665;51.368;6.782;2022-11-20T01:33:22;100925.31;;;-0.38;100.00
9257;BME280;4665;51.368;6.782;2022-11-20T01:35:48;100913.56;;;-0.47;100.00
9257;BME280;4665;51.368;6.782;2022-11-20T01:38:15;100917.94;;;-0.47;100.00
9257;BME280;4665;51.368;6.782;2022-11-20T01:40:40;100923.47;;;-0.36;100.00
9257;BME280;4665;51.368;6.782;2022-11-20T01:43:18;100924.16;;;-0.32;100.00
9257;BME280;4665;51.368;6.782;2022-11-20T01:46:05;100915.53;;;-0.34;100.00
9257;BME280;4665;51.368;6.782;2022-11-20T01:54:02;100919.19;;;-0.37;100.00
9257;BME280;4665;51.368;6.782;2022-11-20T01:56:31;100918.47;;;-0.40;100.00
9257;BME280;4665;51.368;6.782;2022-11-20T01:59:00;100917.28;;;-0.35;100.00
9257;BME280;4665;51.368;6.782;2022-11-20T02:01:26;100914.69;;;-0.35;100.00
9257;BME280;4665;51.368;6.782;2022-11-20T02:03:52;100898.38;;;-0.40;100.00
9257;BME280;4665;51.368;6.782;2022-11-20T02:06:29;100897.03;;;-0.31;100.00
9257;BME280;4665;51.368;6.782;2022-11-20T02:08:56;100903.66;;;-0.24;100.00
9257;BME280;4665;51.368;6.782;2022-11-20T02:11:21;100907.22;;;-0.25;100.00
9257;BME280;4665;51.368;6.782;2022-11-20T02:13:47;100910.59;;;-0.23;100.00
9257;BME280;4665;51.368;6.782;2022-11-20T02:16:30;100900.13;;;-0.23;100.00
9257;BME280;4665;51.368;6.782;2022-11-20T02:18:58;100897.31;;;-0.20;100.00
9257;BME280;4665;51.368;6.782;2022-11-20T02:21:33;100878.28;;;-0.24;100.00
9257;BME280;4665;51.368;6.782;2022-11-20T02:24:09;100886.84;;;-0.20;100.00
9257;BME280;4665;51.368;6.782;2022-11-20T02:26:41;100887.38;;;-0.13;100.00
9257;BME280;4665;51.368;6.782;2022-11-20T02:29:07;100889.88;;;-0.12;100.00
9257;BME280;4665;51.368;6.782;2022-11-20T02:31:38;100884.75;;;-0.13;100.00
9257;BME280;4665;51.368;6.782;2022-11-20T02:34:04;100888.03;;;-0.10;100.00
9257;BME280;4665;51.368;6.782;2022-11-20T02:36:32;100892.34;;;-0.09;100.00
9257;BME280;4665;51.368;6.782;2022-11-20T02:38:57;100887.19;;;-0.10;100.00
9257;BME280;4665;51.368;6.782;2022-11-20T02:41:38;100874.28;;;-0.13;100.00
9257;BME280;4665;51.368;6.782;2022-11-20T02:44:05;100882.66;;;-0.07;100.00
9257;BME280;4665;51.368;6.782;2022-11-20T02:46:31;100876.97;;;0.01;100.00
9257;BME280;4665;51.368;6.782;2022-11-20T02:48:57;100859.84;;;-0.05;100.00
9257;BME280;4665;51.368;6.782;2022-11-20T02:51:23;100858.06;;;-0.04;100.00
9257;BME280;4665;51.368;6.782;2022-11-20T02:53:49;100863.13;;;-0.01;100.00
9257;BME280;4665;51.368;6.782;2022-11-20T02:56:15;100863.63;;;0.06;100.00
9257;BME280;4665;51.368;6.782;2022-11-20T02:58:40;100874.69;;;0.11;100.00
9257;BME280;4665;51.368;6.782;2022-11-20T03:01:06;100857.81;;;0.01;100.00
9257;BME280;4665;51.368;6.782;2022-11-20T03:03:31;100863.56;;;0.07;100.00
9257;BME280;4665;51.368;6.782;2022-11-20T03:05:59;100875.63;;;0.10;100.00
9257;BME280;4665;51.368;6.782;2022-11-20T03:08:24;100872.41;;;0.05;100.00
9257;BME280;4665;51.368;6.782;2022-11-20T03:10:50;100869.03;;;0.03;100.00
9257;BME280;4665;51.368;6.782;2022-11-20T03:13:15;100870.66;;;0.05;100.00
9257;BME280;4665;51.368;6.782;2022-11-20T03:15:40;100866.31;;;0.04;100.00
9257;BME280;4665;51.368;6.782;2022-11-20T03:18:06;100874.28;;;0.03;100.00
9257;BME280;4665;51.368;6.782;2022-11-20T03:20:32;100860.75;;;-0.06;100.00
9257;BME280;4665;51.368;6.782;2022-11-20T03:22:59;100872.75;;;-0.02;100.00
9257;BME280;4665;51.368;6.782;2022-11-20T03:25:24;100860.22;;;-0.12;100.00
9257;BME280;4665;51.368;6.782;2022-11-20T03:27:50;100853.06;;;-0.09;100.00
9257;BME280;4665;51.368;6.782;2022-11-20T03:30:15;100851.34;;;-0.10;100.00
9257;BME280;4665;51.368;6.782;2022-11-20T03:32:41;100845.22;;;-0.09;100.00
9257;BME280;4665;51.368;6.782;2022-11-20T03:35:06;100867.91;;;0.07;100.00
9257;BME280;4665;51.368;6.782;2022-11-20T03:37:32;100875.72;;;0.08;100.00
9257;BME280;4665;51.368;6.782;2022-11-20T03:39:57;100878.25;;;0.10;100.00
9257;BME280;4665;51.368;6.782;2022-11-20T03:42:22;100869.88;;;0.03;100.00
9257;BME280;4665;51.368;6.782;2022-11-20T03:45:07;100870.53;;;0.07;100.00
9257;BME280;4665;51.368;6.782;2022-11-20T03:47:32;100867.84;;;0.08;100.00
9257;BME280;4665;51.368;6.782;2022-11-20T03:49:58;100858.22;;;0.09;100.00
9257;BME280;4665;51.368;6.782;2022-11-20T03:52:23;100857.09;;;0.13;100.00
9257;BME280;4665;51.368;6.782;2022-11-20T03:54:48;100857.28;;;0.10;100.00
9257;BME280;4665;51.368;6.782;2022-11-20T03:57:14;100862.03;;;0.03;100.00
9257;BME280;4665;51.368;6.782;2022-11-20T03:59:39;100858.56;;;0.03;100.00
9257;BME280;4665;51.368;6.782;2022-11-20T04:02:04;100843.00;;;-0.01;100.00
9257;BME280;4665;51.368;6.782;2022-11-20T04:04:30;100846.50;;;0.00;100.00
9257;BME280;4665;51.368;6.782;2022-11-20T04:06:55;100839.03;;;-0.08;100.00
9257;BME280;4665;51.368;6.782;2022-11-20T04:09:20;100859.16;;;0.08;100.00
9257;BME280;4665;51.368;6.782;2022-11-20T04:11:46;100850.34;;;0.09;100.00
9257;BME280;4665;51.368;6.782;2022-11-20T04:14:15;100849.31;;;0.11;100.00
9257;BME280;4665;51.368;6.782;2022-11-20T04:16:41;100842.22;;;0.13;100.00
9257;BME280;4665;51.368;6.782;2022-11-20T04:19:11;100839.78;;;0.10;100.00
9257;BME280;4665;51.368;6.782;2022-11-20T04:21:37;100850.09;;;0.13;100.00
9257;BME280;4665;51.368;6.782;2022-11-20T04:24:03;100858.53;;;0.18;100.00
9257;BME280;4665;51.368;6.782;2022-11-20T04:26:29;100854.06;;;0.20;100.00
9257;BME280;4665;51.368;6.782;2022-11-20T04:28:55;100844.84;;;0.13;100.00
9257;BME280;4665;51.368;6.782;2022-11-20T04:31:23;100843.16;;;0.12;100.00
9257;BME280;4665;51.368;6.782;2022-11-20T04:33:49;100855.91;;;0.18;100.00
9257;BME280;4665;51.368;6.782;2022-11-20T04:36:20;100851.63;;;0.17;100.00
9257;BME280;4665;51.368;6.782;2022-11-20T04:38:46;100842.34;;;0.12;100.00
9257;BME280;4665;51.368;6.782;2022-11-20T04:41:17;100867.66;;;0.27;100.00
9257;BME280;4665;51.368;6.782;2022-11-20T04:43:55;100841.13;;;0.17;100.00
9257;BME280;4665;51.368;6.782;2022-11-20T04:46:32;100873.31;;;0.35;100.00
9257;BME280;4665;51.368;6.782;2022-11-20T04:48:58;100866.22;;;0.37;100.00
9257;BME280;4665;51.368;6.782;2022-11-20T04:51:24;100862.59;;;0.40;100.00
9257;BME280;4665;51.368;6.782;2022-11-20T04:53:49;100859.00;;;0.41;100.00
9257;BME280;4665;51.368;6.782;2022-11-20T04:56:15;100858.84;;;0.44;100.00
9257;BME280;4665;51.368;6.782;2022-11-20T04:58:41;100861.28;;;0.47;100.00
9257;BME280;4665;51.368;6.782;2022-11-20T05:01:10;100847.16;;;0.50;100.00
9257;BME280;4665;51.368;6.782;2022-11-20T05:03:37;100849.78;;;0.50;100.00
9257;BME280;4665;51.368;6.782;2022-11-20T05:06:04;100852.41;;;0.50;100.00
9257;BME280;4665;51.368;6.782;2022-11-20T05:08:30;100859.16;;;0.54;100.00
9257;BME280;4665;51.368;6.782;2022-11-20T05:11:03;100855.94;;;0.49;100.00
9257;BME280;4665;51.368;6.782;2022-11-20T05:13:29;100861.53;;;0.58;100.00
9257;BME280;4665;51.368;6.782;2022-11-20T05:15:54;100854.59;;;0.57;100.00
9257;BME280;4665;51.368;6.782;2022-11-20T05:18:19;100862.19;;;0.62;100.00
9257;BME280;4665;51.368;6.782;2022-11-20T05:20:45;100859.66;;;0.60;100.00
9257;BME280;4665;51.368;6.782;2022-11-20T05:23:10;100865.75;;;0.61;100.00
9257;BME280;4665;51.368;6.782;2022-11-20T05:25:36;100861.34;;;0.61;100.00
9257;BME280;4665;51.368;6.782;2022-11-20T05:28:01;100864.72;;;0.63;100.00
9257;BME280;4665;51.368;6.782;2022-11-20T05:30:26;100854.88;;;0.67;100.00
9257;BME280;4665;51.368;6.782;2022-11-20T05:32:52;100844.78;;;0.61;100.00
9257;BME280;4665;51.368;6.782;2022-11-20T05:35:17;100856.41;;;0.71;100.00
9257;BME280;4665;51.368;6.782;2022-11-20T05:37:43;100854.53;;;0.73;100.00
9257;BME280;4665;51.368;6.782;2022-11-20T05:40:08;100839.16;;;0.67;100.00
9257;BME280;4665;51.368;6.782;2022-11-20T05:42:34;100847.50;;;0.74;100.00
9257;BME280;4665;51.368;6.782;2022-11-20T05:45:02;100846.75;;;0.72;100.00
9257;BME280;4665;51.368;6.782;2022-11-20T05:47:31;100842.53;;;0.69;100.00
9257;BME280;4665;51.368;6.782;2022-11-20T05:49:57;100840.19;;;0.65;100.00
9257;BME280;4665;51.368;6.782;2022-11-20T05:52:22;100838.25;;;0.68;100.00
9257;BME280;4665;51.368;6.782;2022-11-20T05:54:48;100839.16;;;0.67;100.00
9257;BME280;4665;51.368;6.782;2022-11-20T05:57:13;100834.09;;;0.64;100.00
9257;BME280;4665;51.368;6.782;2022-11-20T05:59:38;100826.16;;;0.66;100.00
9257;BME280;4665;51.368;6.782;2022-11-20T06:02:04;100848.94;;;0.79;100.00
9257;BME280;4665;51.368;6.782;2022-11-20T06:04:29;100834.97;;;0.79;100.00
9257;BME280;4665;51.368;6.782;2022-11-20T06:06:54;100832.66;;;0.74;100.00
9257;BME280;4665;51.368;6.782;2022-11-20T06:09:20;100839.56;;;0.75;100.00
9257;BME280;4665;51.368;6.782;2022-11-20T06:11:45;100858.13;;;0.87;100.00
9257;BME280;4665;51.368;6.782;2022-11-20T06:14:10;100852.78;;;0.88;100.00
9257;BME280;4665;51.368;6.782;2022-11-20T06:16:36;100850.34;;;0.85;100.00
9257;BME280;4665;51.368;6.782;2022-11-20T06:19:01;100820.38;;;0.75;100.00
9257;BME280;4665;51.368;6.782;2022-11-20T06:21:27;100836.59;;;0.81;100.00
9257;BME280;4665;51.368;6.782;2022-11-20T06:23:52;100819.81;;;0.70;100.00
9257;BME280;4665;51.368;6.782;2022-11-20T06:26:23;100826.91;;;0.68;100.00
9257;BME280;4665;51.368;6.782;2022-11-20T06:28:49;100829.53;;;0.68;100.00
9257;BME280;4665;51.368;6.782;2022-11-20T06:31:17;100845.66;;;0.76;100.00
9257;BME280;4665;51.368;6.782;2022-11-20T06:33:42;100825.19;;;0.67;100.00
9257;BME280;4665;51.368;6.782;2022-11-20T06:36:10;100829.69;;;0.65;100.00
9257;BME280;4665;51.368;6.782;2022-11-20T06:38:36;100838.50;;;0.63;100.00
9257;BME280;4665;51.368;6.782;2022-11-20T06:41:03;100846.88;;;0.70;100.00
9257;BME280;4665;51.368;6.782;2022-11-20T06:43:29;100846.59;;;0.75;100.00
9257;BME280;4665;51.368;6.782;2022-11-20T06:45:56;100855.09;;;0.78;100.00
9257;BME280;4665;51.368;6.782;2022-11-20T06:48:22;100848.38;;;0.74;100.00
9257;BME280;4665;51.368;6.782;2022-11-20T06:50:48;100861.13;;;0.80;100.00
9257;BME280;4665;51.368;6.782;2022-11-20T06:53:13;100860.19;;;0.81;100.00
9257;BME280;4665;51.368;6.782;2022-11-20T06:55:42;100857.56;;;0.81;100.00
9257;BME280;4665;51.368;6.782;2022-11-20T06:58:09;100864.50;;;0.82;100.00
9257;BME280;4665;51.368;6.782;2022-11-20T07:00:34;100860.19;;;0.81;100.00
9257;BME280;4665;51.368;6.782;2022-11-20T07:03:06;100861.69;;;0.86;100.00
9257;BME280;4665;51.368;6.782;2022-11-20T07:05:33;100867.59;;;0.89;100.00
9257;BME280;4665;51.368;6.782;2022-11-20T07:07:58;100868.38;;;0.91;100.00
9257;BME280;4665;51.368;6.782;2022-11-20T07:10:24;100874.25;;;0.95;100.00
9257;BME280;4665;51.368;6.782;2022-11-20T07:12:50;100876.81;;;0.96;100.00
9257;BME280;4665;51.368;6.782;2022-11-20T07:15:17;100885.44;;;0.98;100.00
9257;BME280;4665;51.368;6.782;2022-11-20T07:17:42;100875.78;;;0.99;100.00
9257;BME280;4665;51.368;6.782;2022-11-20T07:20:08;100880.84;;;1.02;100.00
9257;BME280;4665;51.368;6.782;2022-11-20T07:22:33;100875.78;;;0.99;100.00
9257;BME280;4665;51.368;6.782;2022-11-20T07:24:59;100871.81;;;0.92;100.00
9257;BME280;4665;51.368;6.782;2022-11-20T07:27:24;100874.44;;;0.92;100.00
9257;BME280;4665;51.368;6.782;2022-11-20T07:29:50;100869.41;;;0.89;100.00
9257;BME280;4665;51.368;6.782;2022-11-20T07:32:15;100871.56;;;0.96;100.00
9257;BME280;4665;51.368;6.782;2022-11-20T07:34:40;100871.63;;;0.95;100.00
9257;BME280;4665;51.368;6.782;2022-11-20T07:37:06;100872.13;;;1.01;100.00
9257;BME280;4665;51.368;6.782;2022-11-20T07:39:31;100872.78;;;1.05;100.00
9257;BME280;4665;51.368;6.782;2022-11-20T07:41:56;100860.03;;;0.99;100.00
9257;BME280;4665;51.368;6.782;2022-11-20T07:44:22;100852.44;;;0.94;100.00
9257;BME280;4665;51.368;6.782;2022-11-20T07:46:47;100867.63;;;1.03;100.00
9257;BME280;4665;51.368;6.782;2022-11-20T07:49:12;100842.78;;;0.95;100.00
9257;BME280;4665;51.368;6.782;2022-11-20T07:51:38;100861.53;;;1.03;100.00
9257;BME280;4665;51.368;6.782;2022-11-20T07:54:03;100849.53;;;0.99;100.00
9257;BME280;4665;51.368;6.782;2022-11-20T07:56:28;100846.00;;;1.00;100.00
9257;BME280;4665;51.368;6.782;2022-11-20T07:58:54;100845.03;;;1.01;100.00
9257;BME280;4665;51.368;6.782;2022-11-20T08:01:19;100846.84;;;1.00;100.00
9257;BME280;4665;51.368;6.782;2022-11-20T08:03:44;100855.94;;;1.09;100.00
9257;BME280;4665;51.368;6.782;2022-11-20T08:06:10;100833.16;;;0.95;100.00
9257;BME280;4665;51.368;6.782;2022-11-20T08:08:35;100849.06;;;1.07;100.00
9257;BME280;4665;51.368;6.782;2022-11-20T08:11:01;100851.41;;;1.11;100.00
9257;BME280;4665;51.368;6.782;2022-11-20T08:13:46;100863.34;;;1.17;100.00
9257;BME280;4665;51.368;6.782;2022-11-20T08:16:30;100860.59;;;1.18;100.00
9257;BME280;4665;51.368;6.782;2022-11-20T08:18:55;100861.56;;;1.17;100.00
9257;BME280;4665;51.368;6.782;2022-11-20T08:21:21;100864.94;;;1.19;100.00
9257;BME280;4665;51.368;6.782;2022-11-20T08:23:46;100864.75;;;1.22;100.00
9257;BME280;4665;51.368;6.782;2022-11-20T08:26:12;100869.91;;;1.24;100.00
9257;BME280;4665;51.368;6.782;2022-11-20T08:28:37;100871.31;;;1.30;100.00
9257;BME280;4665;51.368;6.782;2022-11-20T08:31:03;100872.06;;;1.32;100.00
9257;BME280;4665;51.368;6.782;2022-11-20T08:33:29;100869.28;;;1.35;100.00
9257;BME280;4665;51.368;6.782;2022-11-20T08:35:59;100864.03;;;1.35;100.00
9257;BME280;4665;51.368;6.782;2022-11-20T08:38:25;100863.91;;;1.36;100.00
9257;BME280;4665;51.368;6.782;2022-11-20T08:40:50;100852.94;;;1.30;100.00
9257;BME280;4665;51.368;6.782;2022-11-20T08:43:34;100865.50;;;1.39;100.00
9257;BME280;4665;51.368;6.782;2022-11-20T08:45:59;100868.72;;;1.44;100.00
9257;BME280;4665;51.368;6.782;2022-11-20T08:48:24;100866.09;;;1.44;100.00
9257;BME280;4665;51.368;6.782;2022-11-20T08:50:50;100860.63;;;1.47;100.00
9257;BME280;4665;51.368;6.782;2022-11-20T08:53:15;100853.69;;;1.46;100.00
9257;BME280;4665;51.368;6.782;2022-11-20T08:55:40;100857.47;;;1.42;100.00
9257;BME280;4665;51.368;6.782;2022-11-20T08:58:06;100883.59;;;1.58;100.00
9257;BME280;4665;51.368;6.782;2022-11-20T09:00:33;100884.25;;;1.61;100.00
9257;BME280;4665;51.368;6.782;2022-11-20T09:02:59;100880.69;;;1.62;100.00
9257;BME280;4665;51.368;6.782;2022-11-20T09:05:26;100859.31;;;1.54;100.00
9257;BME280;4665;51.368;6.782;2022-11-20T09:07:51;100868.13;;;1.67;100.00
9257;BME280;4665;51.368;6.782;2022-11-20T09:10:16;100839.91;;;1.57;100.00
9257;BME280;4665;51.368;6.782;2022-11-20T09:12:42;100841.50;;;1.59;100.00
9257;BME280;4665;51.368;6.782;2022-11-20T09:15:07;100836.25;;;1.59;100.00
9257;BME280;4665;51.368;6.782;2022-11-20T09:17:33;100840.09;;;1.68;100.00
9257;BME280;4665;51.368;6.782;2022-11-20T09:19:58;100831.09;;;1.72;100.00
9257;BME280;4665;51.368;6.782;2022-11-20T09:22:23;100839.78;;;1.73;100.00
9257;BME280;4665;51.368;6.782;2022-11-20T09:24:49;100840.25;;;1.79;100.00
9257;BME280;4665;51.368;6.782;2022-11-20T09:27:14;100835.63;;;1.83;100.00
9257;BME280;4665;51.368;6.782;2022-11-20T09:29:40;100838.81;;;1.88;100.00
9257;BME280;4665;51.368;6.782;2022-11-20T09:32:05;100819.13;;;1.81;100.00
9257;BME280;4665;51.368;6.782;2022-11-20T09:34:31;100830.38;;;1.83;100.00
9257;BME280;4665;51.368;6.782;2022-11-20T09:36:56;100828.13;;;1.91;100.00
9257;BME280;4665;51.368;6.782;2022-11-20T09:39:22;100826.44;;;1.90;100.00
9257;BME280;4665;51.368;6.782;2022-11-20T09:42:04;100831.75;;;2.03;100.00
9257;BME280;4665;51.368;6.782;2022-11-20T09:44:47;100833.63;;;2.01;100.00
9257;BME280;4665;51.368;6.782;2022-11-20T09:52:49;100824.63;;;2.05;100.00
9257;BME280;4665;51.368;6.782;2022-11-20T09:55:20;100824.41;;;2.08;100.00
9257;BME280;4665;51.368;6.782;2022-11-20T09:57:48;100815.91;;;2.04;100.00
9257;BME280;4665;51.368;6.782;2022-11-20T10:00:16;100831.16;;;2.12;100.00
9257;BME280;4665;51.368;6.782;2022-11-20T10:02:55;100824.88;;;2.15;100.00
9257;BME280;4665;51.368;6.782;2022-11-20T10:05:47;100837.91;;;2.16;100.00
9257;BME280;4665;51.368;6.782;2022-11-20T10:08:21;100836.66;;;2.22;100.00
9257;BME280;4665;51.368;6.782;2022-11-20T10:10:50;100817.34;;;2.23;100.00
9257;BME280;4665;51.368;6.782;2022-11-20T10:27:22;100796.97;;;2.39;100.00
9257;BME280;4665;51.368;6.782;2022-11-20T10:30:08;100793.19;;;2.43;100.00
9257;BME280;4665;51.368;6.782;2022-11-20T10:32:37;100787.75;;;2.46;100.00
9257;BME280;4665;51.368;6.782;2022-11-20T10:35:18;100786.78;;;2.47;100.00
9257;BME280;4665;51.368;6.782;2022-11-20T10:37:49;100772.59;;;2.50;100.00
9257;BME280;4665;51.368;6.782;2022-11-20T10:42:53;100766.94;;;2.56;100.00
9257;BME280;4665;51.368;6.782;2022-11-20T10:47:50;100761.25;;;2.62;100.00
9257;BME280;4665;51.368;6.782;2022-11-20T10:50:20;100758.28;;;2.67;100.00
9257;BME280;4665;51.368;6.782;2022-11-20T10:52:56;100763.16;;;2.73;100.00
9257;BME280;4665;51.368;6.782;2022-11-20T10:55:39;100762.00;;;2.77;100.00
9257;BME280;4665;51.368;6.782;2022-11-20T10:58:15;100755.78;;;2.78;100.00
9257;BME280;4665;51.368;6.782;2022-11-20T11:00:43;100763.34;;;2.83;100.00
9257;BME280;4665;51.368;6.782;2022-11-20T11:03:34;100754.53;;;2.84;100.00
9257;BME280;4665;51.368;6.782;2022-11-20T11:06:21;100749.13;;;2.85;100.00
9257;BME280;4665;51.368;6.782;2022-11-20T11:08:50;100744.09;;;2.82;100.00
9257;BME280;4665;51.368;6.782;2022-11-20T11:11:22;100747.25;;;2.87;100.00
9257;BME280;4665;51.368;6.782;2022-11-20T11:13:48;100726.63;;;2.81;100.00
9257;BME280;4665;51.368;6.782;2022-11-20T11:16:25;100723.69;;;2.86;100.00
9257;BME280;4665;51.368;6.782;2022-11-20T11:18:51;100732.00;;;2.92;100.00
9257;BME280;4665;51.368;6.782;2022-11-20T11:21:24;100725.88;;;2.92;100.00
9257;BME280;4665;51.368;6.782;2022-11-20T11:24:03;100720.28;;;2.97;100.00
9257;BME280;4665;51.368;6.782;2022-11-20T11:26:29;100716.59;;;2.99;100.00
9257;BME280;4665;51.368;6.782;2022-11-20T11:28:56;100714.53;;;3.04;100.00
9257;BME280;4665;51.368;6.782;2022-11-20T11:31:35;100700.06;;;3.10;100.00
9257;BME280;4665;51.368;6.782;2022-11-20T11:34:18;100696.28;;;3.14;100.00
9257;BME280;4665;51.368;6.782;2022-11-20T11:36:55;100685.19;;;3.22;100.00
9257;BME280;4665;51.368;6.782;2022-11-20T11:39:21;100679.94;;;3.22;100.00
9257;BME280;4665;51.368;6.782;2022-11-20T11:41:48;100677.19;;;3.23;100.00
9257;BME280;4665;51.368;6.782;2022-11-20T11:44:19;100674.56;;;3.23;100.00
9257;BME280;4665;51.368;6.782;2022-11-20T11:47:11;100672.66;;;3.25;100.00
9257;BME280;4665;51.368;6.782;2022-11-20T11:49:43;100671.69;;;3.26;100.00
9257;BME280;4665;51.368;6.782;2022-11-20T11:52:15;100671.69;;;3.26;100.00
9257;BME280;4665;51.368;6.782;2022-11-20T11:54:55;100664.88;;;3.24;100.00
9257;BME280;4665;51.368;6.782;2022-11-20T12:00:00;100652.34;;;3.27;100.00
9257;BME280;4665;51.368;6.782;2022-11-20T12:02:32;100653.28;;;3.26;100.00
9257;BME280;4665;51.368;6.782;2022-11-20T12:05:08;100652.34;;;3.27;100.00
9257;BME280;4665;51.368;6.782;2022-11-20T12:07:42;100649.69;;;3.27;100.00
9257;BME280;4665;51.368;6.782;2022-11-20T12:10:23;100655.81;;;3.28;100.00
9257;BME280;4665;51.368;6.782;2022-11-20T12:13:00;100653.78;;;3.31;100.00
9257;BME280;4665;51.368;6.782;2022-11-20T12:15:31;100651.13;;;3.31;100.00
9257;BME280;4665;51.368;6.782;2022-11-20T12:17:58;100642.31;;;3.32;100.00
9257;BME280;4665;51.368;6.782;2022-11-20T12:20:29;100631.53;;;3.35;100.00
9257;BME280;4665;51.368;6.782;2022-11-20T12:23:55;100642.56;;;3.41;100.00
9257;BME280;4665;51.368;6.782;2022-11-20T12:25:56;100634.06;;;3.37;100.00
9257;BME280;4665;51.368;6.782;2022-11-20T12:28:28;100628.47;;;3.42;100.00
9257;BME280;4665;51.368;6.782;2022-11-20T12:31:30;100632.78;;;3.43;100.00
9257;BME280;4665;51.368;6.782;2022-11-20T12:37:11;100620.22;;;3.46;100.00
9257;BME280;4665;51.368;6.782;2022-11-20T12:39:42;100611.47;;;3.46;100.00
9257;BME280;4665;51.368;6.782;2022-11-20T12:42:26;100618.34;;;3.48;100.00
9257;BME280;4665;51.368;6.782;2022-11-20T12:45:51;100602.88;;;3.44;100.00
9257;BME280;4665;51.368;6.782;2022-11-20T12:56:44;100587.09;;;3.55;100.00
9257;BME280;4665;51.368;6.782;2022-11-20T13:05:09;100574.88;;;3.54;100.00
9257;BME280;4665;51.368;6.782;2022-11-20T13:07:41;100570.56;;;3.53;100.00
9257;BME280;4665;51.368;6.782;2022-11-20T13:10:18;100565.19;;;3.54;100.00
9257;BME280;4665;51.368;6.782;2022-11-20T13:12:58;100560.75;;;3.55;100.00
9257;BME280;4665;51.368;6.782;2022-11-20T13:15:39;100551.91;;;3.56;100.00
9257;BME280;4665;51.368;6.782;2022-11-20T13:18:09;100528.91;;;3.58;100.00
9257;BME280;4665;51.368;6.782;2022-11-20T13:20:36;100538.00;;;3.54;100.00
9257;BME280;4665;51.368;6.782;2022-11-20T13:23:05;100547.72;;;3.53;100.00
9257;BME280;4665;51.368;6.782;2022-11-20T13:25:36;100537.28;;;3.52;100.00
9257;BME280;4665;51.368;6.782;2022-11-20T13:30:48;100530.09;;;3.54;100.00
9257;BME280;4665;51.368;6.782;2022-11-20T13:33:34;100519.66;;;3.52;100.00
9257;BME280;4665;51.368;6.782;2022-11-20T13:36:07;100521.47;;;3.52;100.00
9257;BME280;4665;51.368;6.782;2022-11-20T13:38:50;100511.19;;;3.49;100.00
9257;BME280;4665;51.368;6.782;2022-11-20T13:44:13;100513.81;;;3.49;100.00
9257;BME280;4665;51.368;6.782;2022-11-20T13:46:42;100507.91;;;3.45;100.00
9257;BME280;4665;51.368;6.782;2022-11-20T13:49:16;100503.47;;;3.46;100.00
9257;BME280;4665;51.368;6.782;2022-11-20T13:51:46;100491.28;;;3.45;100.00
9257;BME280;4665;51.368;6.782;2022-11-20T14:02:19;100476.22;;;3.47;100.00
9257;BME280;4665;51.368;6.782;2022-11-20T14:04:50;100464.56;;;3.38;100.00
9257;BME280;4665;51.368;6.782;2022-11-20T14:07:18;100471.78;;;3.47;100.00
9257;BME280;4665;51.368;6.782;2022-11-20T14:09:56;100463.75;;;3.49;100.00
9257;BME280;4665;51.368;6.782;2022-11-20T14:12:31;100461.97;;;3.49;100.00
9257;BME280;4665;51.368;6.782;2022-11-20T14:14:57;100460.88;;;3.52;100.00
9257;BME280;4665;51.368;6.782;2022-11-20T14:17:32;100447.72;;;3.52;100.00
9257;BME280;4665;51.368;6.782;2022-11-20T14:20:02;100433.81;;;3.50;100.00
9257;BME280;4665;51.368;6.782;2022-11-20T14:22:32;100427.72;;;3.49;100.00